Time;durP1;ratioP1;P1;durP2;ratioP2;P2;SDS_P1;SDS_P2;PMS_P1;PMS_P2;Temp;Humidity;BMP_temperature;BMP_pressure;BME280_temperature;BME280_humidity;BME280_pressure;Samples;Min_cycle;Max_cycle;Signal;HPM_P1;HPM_P2
2021/03/31 00:00:09;;;;;;;1.50;1.13;;;;;;;6.33;91.48;101253.53;5012731;28;20484;-56
2021/03/31 00:02:35;;;;;;;0.30;0.23;;;;;;;6.30;92.45;101263.19;5012871;28;20445;-56
2021/03/31 00:05:02;;;;;;;0.30;0.20;;;;;;;6.58;90.95;101253.59;5012621;28;20452;-56
2021/03/31 00:07:28;;;;;;;0.30;0.20;;;;;;;6.26;91.89;101259.66;5011894;28;20453;-56
2021/03/31 00:09:54;;;;;;;0.30;0.20;;;;;;;6.31;91.19;101254.41;5012797;28;20468;-56
2021/03/31 00:12:20;;;;;;;0.30;0.20;;;;;;;6.35;91.09;101251.78;5012618;28;20449;-56
2021/03/31 00:14:46;;;;;;;0.30;0.20;;;;;;;6.40;91.38;101250.03;5011779;28;20456;-57
2021/03/31 00:17:14;;;;;;;0.30;0.20;;;;;;;6.22;90.78;101237.63;5011518;28;20448;-56
2021/03/31 00:19:40;;;;;;;0.30;0.20;;;;;;;6.20;91.74;101242.03;5011985;28;20480;-56
2021/03/31 00:22:06;;;;;;;0.30;0.20;;;;;;;6.10;91.69;101239.34;5012611;28;20457;-56
2021/03/31 00:24:32;;;;;;;0.30;0.20;;;;;;;6.11;92.70;101243.75;5012833;28;20457;-56
2021/03/31 00:26:58;;;;;;;0.30;0.20;;;;;;;6.00;92.48;101246.31;5012580;28;20976;-56
2021/03/31 00:29:24;;;;;;;0.30;0.20;;;;;;;5.87;93.41;101232.13;5012316;28;21005;-56
2021/03/31 00:31:50;;;;;;;0.33;0.20;;;;;;;5.99;92.28;101225.19;5012519;28;20461;-56
2021/03/31 00:34:17;;;;;;;0.30;0.20;;;;;;;5.87;93.35;101236.53;5012656;28;20448;-56
2021/03/31 00:36:43;;;;;;;0.30;0.20;;;;;;;5.79;93.46;101233.88;5012249;28;20556;-56
2021/03/31 00:39:09;;;;;;;0.30;0.20;;;;;;;5.79;93.28;101239.13;5012624;28;20543;-56
2021/03/31 00:41:35;;;;;;;0.30;0.20;;;;;;;5.82;94.28;101228.59;5011214;28;20448;-56
2021/03/31 00:44:01;;;;;;;0.30;0.20;;;;;;;5.72;93.56;101231.16;5012332;28;20453;-56
2021/03/31 00:46:27;;;;;;;0.30;0.20;;;;;;;5.78;93.97;101226.81;5008772;28;20540;-56
2021/03/31 00:48:54;;;;;;;0.30;0.30;;;;;;;5.82;93.96;101222.44;5010079;28;20830;-56
2021/03/31 00:51:20;;;;;;;0.30;0.20;;;;;;;5.87;93.39;101224.22;5007346;28;20460;-56
2021/03/31 00:53:46;;;;;;;0.30;0.20;;;;;;;5.72;93.92;101220.63;5011234;28;20459;-56
2021/03/31 00:56:13;;;;;;;0.30;0.20;;;;;;;5.72;93.84;101223.25;5012078;28;20499;-56
2021/03/31 01:03:39;;;;;;;0.30;0.20;;;;;;;5.80;93.56;101201.34;5039967;28;21071;-54
2021/03/31 01:06:06;;;;;;;0.30;0.20;;;;;;;5.68;93.68;101203.00;5051517;28;20847;-54
2021/03/31 01:08:32;;;;;;;0.30;0.20;;;;;;;5.74;93.86;101208.31;5051724;28;20974;-54
2021/03/31 01:10:58;;;;;;;0.30;0.20;;;;;;;5.68;94.18;101210.94;5038523;28;20517;-54
2021/03/31 01:13:53;;;;;;;0.30;0.20;;;;;;;5.71;93.92;101213.56;5041927;28;20501;-54
2021/03/31 01:16:27;;;;;;;0.30;0.20;;;;;;;5.65;94.72;101206.53;5041836;28;20497;-54
2021/03/31 01:18:53;;;;;;;0.30;0.20;;;;;;;5.87;93.15;101210.16;5042205;28;20450;-54
2021/03/31 01:21:50;;;;;;;0.30;0.20;;;;;;;5.78;93.48;101204.84;5047327;28;20451;-54
2021/03/31 01:24:54;;;;;;;1.13;1.13;;;;;;;5.82;94.02;101202.22;5049072;28;20447;-54
2021/03/31 01:27:28;;;;;;;0.40;0.27;;;;;;;5.76;93.83;101194.28;5048405;28;20871;-54
2021/03/31 01:30:12;;;;;;;0.30;0.20;;;;;;;5.61;94.62;101202.06;5047779;28;20475;-54
2021/03/31 01:32:57;;;;;;;0.30;0.20;;;;;;;5.69;94.04;101197.75;5047759;28;20454;-54
2021/03/31 01:35:24;;;;;;;0.30;0.20;;;;;;;5.72;93.16;101187.22;5047583;28;20533;-54
2021/03/31 01:37:53;;;;;;;0.30;0.20;;;;;;;5.74;94.22;101189.84;5044587;28;20537;-54
2021/03/31 01:40:22;;;;;;;0.30;0.20;;;;;;;5.48;94.38;101190.59;5055342;28;20467;-54
2021/03/31 01:43:03;;;;;;;0.30;0.20;;;;;;;5.49;95.37;101189.72;5042420;28;20940;-54
2021/03/31 01:45:32;;;;;;;0.30;0.20;;;;;;;5.45;95.05;101185.28;5041764;28;20500;-54
2021/03/31 01:48:04;;;;;;;0.30;0.20;;;;;;;5.32;95.63;101186.94;5050585;28;20462;-54
2021/03/31 01:50:32;;;;;;;0.30;0.20;;;;;;;5.43;95.23;101175.59;5043110;28;20980;-54
2021/03/31 01:53:01;;;;;;;0.30;0.20;;;;;;;5.37;95.66;101178.22;5041632;28;20448;-54
2021/03/31 01:55:29;;;;;;;0.30;0.20;;;;;;;5.31;95.60;101181.66;5044738;28;20494;-54
2021/03/31 01:57:57;;;;;;;0.30;0.20;;;;;;;5.28;95.08;101174.63;5048041;28;20454;-54
2021/03/31 02:00:27;;;;;;;0.30;0.20;;;;;;;5.18;95.55;101169.25;5044672;28;20470;-54
2021/03/31 02:02:55;;;;;;;0.30;0.20;;;;;;;5.10;96.33;101171.88;5041487;28;20508;-54
2021/03/31 02:05:22;;;;;;;0.30;0.20;;;;;;;5.01;97.10;101158.59;5044420;28;20444;-54
2021/03/31 02:07:50;;;;;;;0.30;0.20;;;;;;;5.18;96.15;101167.50;5048013;28;20506;-54
2021/03/31 02:10:18;;;;;;;0.30;0.20;;;;;;;4.96;96.64;101162.97;5045563;28;20570;-54
2021/03/31 02:12:44;;;;;;;0.30;0.20;;;;;;;5.13;96.23;101160.47;5041503;28;20446;-54
2021/03/31 02:15:18;;;;;;;0.30;0.10;;;;;;;4.88;97.52;101160.25;5043658;28;20452;-54
2021/03/31 02:17:46;;;;;;;0.30;0.20;;;;;;;4.94;97.27;101165.59;5047706;28;20534;-54
2021/03/31 02:20:19;;;;;;;0.30;0.20;;;;;;;5.10;96.13;101163.06;5046738;28;20485;-54
2021/03/31 02:22:46;;;;;;;0.30;0.20;;;;;;;4.97;96.55;101165.59;5041098;28;20525;-54
2021/03/31 02:25:13;;;;;;;0.30;0.20;;;;;;;4.96;97.00;101157.69;5041133;28;20459;-54
2021/03/31 02:27:40;;;;;;;0.30;0.20;;;;;;;4.91;96.88;101162.91;5046482;28;20521;-54
2021/03/31 02:30:09;;;;;;;0.30;0.20;;;;;;;4.99;96.30;101157.72;5047095;28;20471;-54
2021/03/31 02:32:36;;;;;;;0.30;0.20;;;;;;;4.84;97.47;101155.84;5047574;28;20470;-54
2021/03/31 02:35:05;;;;;;;0.30;0.20;;;;;;;4.86;97.47;101150.56;5047048;28;20971;-54
2021/03/31 02:37:31;;;;;;;0.30;0.20;;;;;;;4.79;97.60;101146.13;5041513;28;20537;-54
2021/03/31 02:39:59;;;;;;;0.30;0.20;;;;;;;4.81;97.74;101149.66;5053687;28;20467;-54
2021/03/31 02:42:26;;;;;;;0.30;0.20;;;;;;;4.71;97.96;101148.69;5045828;28;20447;-54
2021/03/31 02:44:56;;;;;;;0.30;0.20;;;;;;;4.84;97.17;101147.94;5046999;28;21002;-54
2021/03/31 02:47:29;;;;;;;0.30;0.20;;;;;;;4.77;97.08;101140.84;5042997;28;20827;-54
2021/03/31 02:49:58;;;;;;;0.30;0.20;;;;;;;4.77;97.13;101143.47;5040147;28;20487;-54
2021/03/31 02:52:26;;;;;;;0.30;0.20;;;;;;;4.78;96.82;101145.22;5043436;28;20947;-54
2021/03/31 02:54:54;;;;;;;0.30;0.20;;;;;;;4.61;97.16;101136.31;5047076;28;20447;-54
2021/03/31 02:57:22;;;;;;;0.30;0.20;;;;;;;4.55;97.51;101133.63;5044581;28;20534;-54
2021/03/31 02:59:50;;;;;;;0.30;0.20;;;;;;;4.45;98.34;101136.16;5039782;28;20850;-54
2021/03/31 03:02:18;;;;;;;0.30;0.20;;;;;;;4.61;97.71;101133.66;5042177;28;20867;-54
2021/03/31 03:04:54;;;;;;;0.30;0.20;;;;;;;4.55;98.12;101136.25;5046804;28;20889;-54
2021/03/31 03:07:21;;;;;;;0.30;0.20;;;;;;;4.47;98.23;101133.53;5046886;28;20457;-54
2021/03/31 03:09:47;;;;;;;0.30;0.20;;;;;;;4.35;98.45;101128.16;5039722;28;21015;-54
2021/03/31 03:12:17;;;;;;;0.30;0.20;;;;;;;4.39;98.93;101128.22;5040079;28;20455;-53
2021/03/31 03:14:49;;;;;;;0.30;0.30;;;;;;;4.43;98.65;101130.00;5040613;28;20450;-54
2021/03/31 03:17:16;;;;;;;0.30;0.20;;;;;;;4.33;98.83;101137.78;5039832;28;20529;-54
2021/03/31 03:19:43;;;;;;;0.30;0.20;;;;;;;4.36;98.44;101130.78;5051548;28;20471;-54
2021/03/31 03:22:11;;;;;;;0.30;0.20;;;;;;;4.40;98.84;101129.97;5039922;28;20448;-54
2021/03/31 03:24:38;;;;;;;0.30;0.10;;;;;;;4.49;98.05;101129.16;5044326;28;20486;-54
2021/03/31 03:27:05;;;;;;;0.50;0.50;;;;;;;4.29;98.71;101120.22;5046675;28;20521;-53
2021/03/31 03:29:32;;;;;;;0.30;0.20;;;;;;;4.28;98.84;101111.44;5042274;28;20525;-53
2021/03/31 03:31:59;;;;;;;0.30;0.20;;;;;;;4.35;98.64;101115.88;5039777;28;20452;-52
2021/03/31 03:34:25;;;;;;;0.30;0.20;;;;;;;4.36;98.58;101112.38;5043472;28;20448;-52
2021/03/31 03:36:52;;;;;;;0.30;0.20;;;;;;;4.23;98.42;101105.22;5046197;28;20495;-52
2021/03/31 03:39:19;;;;;;;0.30;0.20;;;;;;;4.36;98.35;101109.75;5042551;28;20566;-52
2021/03/31 03:41:45;;;;;;;0.30;0.20;;;;;;;4.46;98.15;101113.34;5050819;28;20508;-52
2021/03/31 03:44:11;;;;;;;0.30;0.20;;;;;;;4.44;97.85;101115.97;5041836;28;20823;-52
2021/03/31 03:46:38;;;;;;;1.80;0.67;;;;;;;4.62;96.98;101117.00;5039456;28;20460;-51
2021/03/31 03:49:05;;;;;;;0.30;0.20;;;;;;;4.59;96.76;101119.63;5043544;28;21014;-52
2021/03/31 03:51:32;;;;;;;0.30;0.20;;;;;;;4.42;96.50;101122.97;5046154;28;20462;-52
2021/03/31 03:53:59;;;;;;;0.30;0.20;;;;;;;4.33;97.94;101109.72;5042128;28;20447;-52
2021/03/31 03:56:25;;;;;;;0.30;0.20;;;;;;;4.16;98.09;101114.81;5038976;28;21025;-52
2021/03/31 03:58:51;;;;;;;0.30;0.20;;;;;;;4.13;99.48;101113.91;5043534;28;20443;-52
2021/03/31 04:01:17;;;;;;;0.30;0.20;;;;;;;4.15;99.21;101107.78;5045781;28;20462;-52
2021/03/31 04:03:43;;;;;;;0.30;0.10;;;;;;;4.07;100.00;101114.69;5041469;28;20446;-52
2021/03/31 04:06:10;;;;;;;0.30;0.20;;;;;;;4.08;99.69;101112.94;5039110;28;20448;-52
2021/03/31 04:08:37;;;;;;;0.30;0.20;;;;;;;3.98;99.84;101114.63;5043411;28;20454;-52
2021/03/31 04:11:04;;;;;;;0.30;0.20;;;;;;;3.97;100.00;101111.94;5045946;28;20832;-52
2021/03/31 04:13:33;;;;;;;0.70;0.70;;;;;;;4.27;100.00;101120.19;5041665;28;20449;-52
2021/03/31 04:16:07;;;;;;;0.30;0.20;;;;;;;4.01;100.00;101106.75;5039072;28;20482;-52
2021/03/31 04:18:36;;;;;;;0.30;0.20;;;;;;;4.14;100.00;101110.41;5041264;28;20443;-52
2021/03/31 04:21:02;;;;;;;0.30;0.20;;;;;;;4.03;100.00;101112.03;5044323;28;20474;-52
2021/03/31 04:23:28;;;;;;;0.30;0.10;;;;;;;4.09;99.48;101112.09;5043949;28;20450;-52
2021/03/31 04:25:57;;;;;;;0.30;0.20;;;;;;;4.10;100.00;101112.09;5039138;28;20487;-52
2021/03/31 04:28:27;;;;;;;0.30;0.20;;;;;;;4.04;100.00;101112.03;5040409;28;20479;-51
2021/03/31 04:30:55;;;;;;;0.30;0.20;;;;;;;3.95;100.00;101111.03;5044976;28;20479;-52
2021/03/31 04:33:23;;;;;;;0.30;0.20;;;;;;;4.01;100.00;101117.28;5045422;28;20446;-52
2021/03/31 04:35:53;;;;;;;0.30;0.20;;;;;;;3.99;100.00;101115.50;5045344;28;20502;-51
2021/03/31 04:38:19;;;;;;;0.30;0.10;;;;;;;3.94;100.00;101106.66;5046194;28;20454;-51
2021/03/31 04:40:54;;;;;;;0.30;0.20;;;;;;;4.01;99.84;101117.28;5052075;28;20479;-52
2021/03/31 04:43:22;;;;;;;0.30;0.10;;;;;;;3.82;100.00;101105.63;5038651;28;20451;-51
2021/03/31 04:45:48;;;;;;;6.33;2.17;;;;;;;3.65;100.00;101109.81;5042422;28;20499;-52
2021/03/31 04:48:15;;;;;;;0.30;0.20;;;;;;;4.03;100.00;101115.53;5045163;28;20513;-52
2021/03/31 04:50:41;;;;;;;0.30;0.20;;;;;;;3.89;100.00;101106.63;5044239;28;20466;-52
2021/03/31 04:53:08;;;;;;;0.30;0.20;;;;;;;4.04;100.00;101105.91;5042428;28;20453;-52
2021/03/31 04:55:34;;;;;;;0.30;0.20;;;;;;;3.97;100.00;101111.94;5046314;28;20791;-52
2021/03/31 04:58:02;;;;;;;6.03;1.13;;;;;;;3.93;100.00;101110.16;5049527;28;20451;-52
2021/03/31 05:00:28;;;;;;;0.30;0.20;;;;;;;4.08;100.00;101105.06;5045796;28;20470;-52
2021/03/31 05:02:55;;;;;;;0.30;0.10;;;;;;;4.10;100.00;101105.94;5042424;28;20454;-52
2021/03/31 05:05:21;;;;;;;0.30;0.20;;;;;;;4.13;100.00;101101.63;5046166;28;20452;-52
2021/03/31 05:07:47;;;;;;;1.80;1.27;;;;;;;4.11;100.00;101099.81;5048850;28;20454;-52
2021/03/31 05:10:13;;;;;;;0.30;0.20;;;;;;;4.15;99.49;101099.00;5045512;28;20520;-52
2021/03/31 05:12:39;;;;;;;0.30;0.20;;;;;;;4.25;98.65;101106.16;5042371;28;20462;-52
2021/03/31 05:15:06;;;;;;;0.30;0.17;;;;;;;4.24;98.45;101103.47;5045825;28;20456;-52
2021/03/31 05:17:33;;;;;;;0.30;0.20;;;;;;;4.15;99.41;101109.53;5049282;28;20487;-52
2021/03/31 05:19:59;;;;;;;0.30;0.20;;;;;;;4.00;99.84;101117.25;5045267;28;21042;-52
2021/03/31 05:22:26;;;;;;;0.30;0.20;;;;;;;3.93;100.00;101121.56;5041850;28;20461;-52
2021/03/31 05:24:52;;;;;;;0.30;0.17;;;;;;;4.02;100.00;101115.53;5045942;28;20451;-52
2021/03/31 05:27:18;;;;;;;0.30;0.20;;;;;;;3.92;100.00;101114.53;5048989;28;20452;-52
2021/03/31 05:29:44;;;;;;;0.30;0.20;;;;;;;3.94;100.00;101114.53;5045442;28;20471;-52
2021/03/31 05:32:11;;;;;;;0.30;0.10;;;;;;;3.90;100.00;101121.53;5042104;28;20469;-52
2021/03/31 05:34:37;;;;;;;0.30;0.10;;;;;;;4.06;100.00;101107.69;5045508;28;20448;-52
2021/03/31 05:37:06;;;;;;;0.30;0.10;;;;;;;3.96;100.00;101121.59;5048573;28;20487;-52
2021/03/31 05:39:32;;;;;;;0.30;0.20;;;;;;;4.02;100.00;101110.28;5046666;28;20480;-52
2021/03/31 05:42:00;;;;;;;0.30;0.20;;;;;;;4.11;100.00;101119.16;5050582;28;20513;-52
2021/03/31 05:44:26;;;;;;;0.83;0.83;;;;;;;4.24;99.93;101116.63;5046664;28;20504;-52
2021/03/31 05:46:53;;;;;;;0.30;0.20;;;;;;;4.41;99.68;101110.69;5041363;28;20508;-52
2021/03/31 05:49:20;;;;;;;0.30;0.20;;;;;;;4.59;98.90;101103.81;5043152;28;20475;-52
2021/03/31 05:51:46;;;;;;;0.30;0.20;;;;;;;4.60;99.18;101108.22;5048366;28;20451;-52
2021/03/31 05:54:12;;;;;;;0.30;0.20;;;;;;;4.82;98.21;101104.03;5047500;28;20883;-52
2021/03/31 05:56:41;;;;;;;0.30;0.20;;;;;;;4.89;97.35;101106.69;5041175;28;20494;-52
2021/03/31 05:59:07;;;;;;;0.30;0.20;;;;;;;4.98;97.60;101109.41;5042857;28;20471;-52
2021/03/31 06:01:36;;;;;;;0.30;0.20;;;;;;;5.06;96.51;101110.31;5048370;28;20462;-52
2021/03/31 06:04:03;;;;;;;0.30;0.20;;;;;;;5.10;96.84;101099.84;5047293;28;20454;-52
2021/03/31 06:06:30;;;;;;;0.30;0.20;;;;;;;5.21;95.81;101108.69;5041299;28;20443;-52
2021/03/31 06:08:57;;;;;;;0.30;0.20;;;;;;;5.22;96.16;101107.81;5042099;28;20484;-52
2021/03/31 06:11:23;;;;;;;0.30;0.20;;;;;;;5.25;96.05;101113.09;5047831;28;20458;-52
2021/03/31 06:14:00;;;;;;;0.30;0.20;;;;;;;5.34;96.28;101106.16;5047301;28;20458;-51
2021/03/31 06:16:43;;;;;;;0.30;0.30;;;;;;;5.52;96.15;101108.00;5029594;28;20485;-51
2021/03/31 06:19:18;;;;;;;0.30;0.20;;;;;;;5.86;95.91;101105.50;5041161;28;20588;-51
2021/03/31 06:22:49;;;;;;;0.30;0.20;;;;;;;6.06;94.98;101108.25;5043890;28;20460;-52
2021/03/31 06:25:14;;;;;;;0.30;0.20;;;;;;;6.26;94.58;101108.28;5042746;28;20474;-52
2021/03/31 06:27:41;;;;;;;0.40;0.30;;;;;;;6.33;94.43;101107.44;5041158;28;20526;-52
2021/03/31 06:30:07;;;;;;;0.30;0.20;;;;;;;6.39;94.29;101112.72;5041861;28;20477;-52
2021/03/31 06:32:38;;;;;;;0.30;0.20;;;;;;;6.44;94.27;101113.59;5047764;28;20476;-52
2021/03/31 06:35:15;;;;;;;0.30;0.20;;;;;;;6.40;94.58;101111.84;5047435;28;20446;-52
2021/03/31 06:37:42;;;;;;;0.30;0.20;;;;;;;6.52;93.96;101111.84;5041544;28;20501;-52
2021/03/31 06:40:28;;;;;;;0.30;0.20;;;;;;;6.64;94.02;101105.72;5054089;28;20480;-52
2021/03/31 06:43:08;;;;;;;0.30;0.20;;;;;;;6.79;93.43;101103.06;5041916;28;20505;-52
2021/03/31 06:45:44;;;;;;;0.40;0.30;;;;;;;6.88;92.49;101100.44;5041690;28;20465;-52
2021/03/31 06:48:11;;;;;;;0.30;0.20;;;;;;;6.99;91.82;101109.25;5048057;28;20454;-52
2021/03/31 06:50:37;;;;;;;0.30;0.20;;;;;;;7.38;90.86;101112.69;5043060;28;20482;-52
2021/03/31 06:53:05;;;;;;;0.30;0.20;;;;;;;7.38;91.58;101116.22;5040585;28;20452;-52
2021/03/31 06:55:32;;;;;;;0.30;0.20;;;;;;;7.63;89.82;101111.72;5044611;28;20455;-52
2021/03/31 06:58:00;;;;;;;0.30;0.20;;;;;;;7.66;89.41;101105.53;5047203;28;20446;-52
2021/03/31 07:00:32;;;;;;;2.53;0.87;;;;;;;7.81;89.68;101105.50;5043388;28;20471;-53
2021/03/31 07:03:03;;;;;;;0.30;0.20;;;;;;;8.16;90.17;101102.69;5040119;28;20512;-53
2021/03/31 07:05:32;;;;;;;0.30;0.20;;;;;;;8.48;88.36;101105.16;5043372;28;20443;-53
2021/03/31 07:08:12;;;;;;;0.30;0.20;;;;;;;8.19;88.19;101107.06;5047460;28;20474;-55
2021/03/31 07:10:52;;;;;;;0.30;0.20;;;;;;;8.40;87.05;101101.69;5046057;28;20466;-55
2021/03/31 07:13:37;;;;;;;0.30;0.20;;;;;;;8.61;87.01;101100.63;5045377;28;20443;-55
2021/03/31 07:16:05;;;;;;;0.63;0.63;;;;;;;8.53;87.64;101098.06;5047113;28;20487;-55
2021/03/31 07:18:33;;;;;;;0.30;0.20;;;;;;;8.27;88.77;101097.31;5044356;28;20447;-55
2021/03/31 07:21:00;;;;;;;0.83;0.57;;;;;;;8.46;88.06;101088.38;5046560;28;20471;-55
2021/03/31 07:23:27;;;;;;;0.40;0.30;;;;;;;8.43;87.43;101099.00;5045130;28;20455;-55
2021/03/31 07:25:55;;;;;;;0.30;0.20;;;;;;;8.73;86.93;101091.72;5039925;28;20955;-55
2021/03/31 07:28:28;;;;;;;0.30;0.20;;;;;;;8.89;85.75;101090.69;5041635;28;20448;-55
2021/03/31 07:30:56;;;;;;;0.30;0.20;;;;;;;9.03;85.29;101087.91;5046313;28;20526;-55
2021/03/31 07:33:26;;;;;;;0.30;0.20;;;;;;;9.16;84.77;101087.78;5045912;28;20455;-55
2021/03/31 07:35:53;;;;;;;0.30;0.20;;;;;;;9.31;84.76;101081.44;5039512;28;20490;-55
2021/03/31 07:38:22;;;;;;;8.60;1.27;;;;;;;9.15;85.27;101082.50;5040876;28;20521;-55
2021/03/31 07:40:51;;;;;;;0.30;0.20;;;;;;;9.51;84.26;101081.22;5051736;28;20481;-55
2021/03/31 07:43:24;;;;;;;1.80;1.03;;;;;;;9.90;82.70;101076.34;5039732;28;20448;-55
2021/03/31 07:45:55;;;;;;;0.30;0.30;;;;;;;9.87;82.17;101079.91;5043072;28;20448;-55
2021/03/31 07:48:22;;;;;;;0.30;0.20;;;;;;;10.39;80.12;101073.88;5046158;28;20451;-55
2021/03/31 07:50:49;;;;;;;0.30;0.20;;;;;;;10.65;79.52;101074.34;5043801;28;20467;-55
2021/03/31 07:53:15;;;;;;;0.40;0.30;;;;;;;10.81;77.11;101082.94;5039327;28;20997;-55
2021/03/31 07:55:49;;;;;;;0.30;0.20;;;;;;;10.92;77.48;101077.44;5041453;28;20854;-55
2021/03/31 07:58:28;;;;;;;0.30;0.20;;;;;;;11.04;76.81;101089.66;5046257;28;20917;-55
2021/03/31 08:00:58;;;;;;;0.37;0.30;;;;;;;11.43;76.03;101075.63;5046169;28;20983;-55
2021/03/31 08:03:29;;;;;;;0.30;0.20;;;;;;;11.65;75.25;101078.75;5040715;28;20459;-55
2021/03/31 08:06:28;;;;;;;0.60;0.60;;;;;;;11.26;72.92;101077.75;5039342;28;20455;-55
2021/03/31 08:09:22;;;;;;;0.30;0.20;;;;;;;11.28;72.80;101062.63;5037268;28;20466;-55
2021/03/31 08:11:51;;;;;;;0.60;0.60;;;;;;;11.51;73.33;101073.72;5039835;28;20461;-55
2021/03/31 08:14:35;;;;;;;2.50;0.20;;;;;;;11.73;73.01;101067.94;5039619;28;20447;-55
2021/03/31 08:17:10;;;;;;;0.50;0.40;;;;;;;11.85;72.17;101067.72;5039525;28;20586;-55
2021/03/31 08:19:41;;;;;;;0.50;0.40;;;;;;;12.10;71.19;101076.03;5051940;28;20470;-55
2021/03/31 08:22:32;;;;;;;0.37;0.30;;;;;;;12.36;68.48;101080.78;5039273;28;20938;-55
2021/03/31 08:25:23;;;;;;;0.30;0.20;;;;;;;12.65;67.72;101072.97;5039951;28;20443;-56
2021/03/31 08:27:58;;;;;;;0.57;0.57;;;;;;;12.93;67.54;101074.94;5040517;28;20455;-56
2021/03/31 08:30:24;;;;;;;0.30;0.20;;;;;;;12.88;66.88;101077.72;5038981;28;20814;-56
2021/03/31 08:32:52;;;;;;;0.40;0.40;;;;;;;13.22;66.14;101068.88;5042876;28;20550;-55
2021/03/31 08:35:20;;;;;;;0.30;0.20;;;;;;;13.32;66.85;101071.25;5045859;28;20462;-56
2021/03/31 08:37:48;;;;;;;0.30;0.20;;;;;;;13.13;67.61;101066.41;5042509;28;20505;-55
2021/03/31 08:40:16;;;;;;;0.40;0.20;;;;;;;13.47;67.51;101059.28;5051257;28;20934;-56
2021/03/31 08:43:02;;;;;;;0.70;0.67;;;;;;;13.59;66.04;101063.41;5039861;28;20539;-56
2021/03/31 08:45:37;;;;;;;0.30;0.20;;;;;;;13.74;66.04;101049.59;5045366;28;20483;-56
2021/03/31 08:48:06;;;;;;;0.30;0.20;;;;;;;13.72;66.20;101053.25;5044907;28;20473;-56
2021/03/31 08:50:37;;;;;;;0.30;0.20;;;;;;;14.02;65.35;101052.31;5039708;28;20816;-55
2021/03/31 08:53:09;;;;;;;0.30;0.20;;;;;;;14.17;64.85;101051.84;5038612;28;20448;-56
2021/03/31 08:55:38;;;;;;;0.40;0.30;;;;;;;14.32;64.76;101058.50;5043363;28;20448;-56
2021/03/31 08:58:14;;;;;;;0.80;0.60;;;;;;;14.43;65.15;101048.34;5045375;28;20447;-56
2021/03/31 09:00:46;;;;;;;0.40;0.30;;;;;;;14.53;64.56;101057.00;5042495;28;20466;-56
2021/03/31 09:03:13;;;;;;;0.30;0.20;;;;;;;14.98;64.12;101054.56;5038360;28;20514;-55
2021/03/31 09:05:53;;;;;;;0.30;0.20;;;;;;;15.09;62.71;101054.19;5040574;28;20452;-56
2021/03/31 09:08:24;;;;;;;0.30;0.20;;;;;;;15.05;62.92;101053.41;5045192;28;20447;-56
2021/03/31 09:11:11;;;;;;;0.40;0.33;;;;;;;15.31;62.34;101040.91;5043936;28;20629;-56
2021/03/31 09:13:39;;;;;;;0.83;0.83;;;;;;;15.30;61.97;101039.16;5041801;28;20457;-56
2021/03/31 09:16:13;;;;;;;0.60;0.57;;;;;;;15.35;61.20;101037.16;5038330;28;20486;-56
2021/03/31 09:18:43;;;;;;;0.67;0.67;;;;;;;15.51;60.66;101027.66;5040874;28;20483;-56
2021/03/31 09:21:12;;;;;;;0.40;0.20;;;;;;;15.68;59.92;101033.31;5045018;28;21036;-56
2021/03/31 09:23:44;;;;;;;0.40;0.20;;;;;;;16.02;59.52;101020.38;5043333;28;20521;-56
2021/03/31 09:26:12;;;;;;;0.40;0.30;;;;;;;16.09;58.47;101014.75;5038148;28;20439;-56
2021/03/31 09:28:38;;;;;;;1.03;1.03;;;;;;;16.18;58.27;101021.56;5039010;28;20502;-56
2021/03/31 09:31:09;;;;;;;0.40;0.20;;;;;;;16.39;57.44;101018.00;5045247;28;20503;-56
2021/03/31 09:33:43;;;;;;;0.40;0.20;;;;;;;16.70;57.38;101014.94;5045028;28;20450;-56
2021/03/31 09:36:16;;;;;;;0.50;0.50;;;;;;;16.75;57.11;101009.38;5041868;28;20488;-56
2021/03/31 09:38:46;;;;;;;10.63;1.57;;;;;;;16.42;57.28;101004.44;5043495;28;20903;-56
2021/03/31 09:41:13;;;;;;;0.40;0.30;;;;;;;16.55;56.69;101004.81;5055955;28;20529;-56
2021/03/31 09:43:41;;;;;;;1.43;1.33;;;;;;;16.55;57.75;101003.00;5042218;28;20462;-56
2021/03/31 09:46:08;;;;;;;0.47;0.37;;;;;;;16.86;57.55;101001.75;5043591;28;20443;-56
2021/03/31 09:48:35;;;;;;;0.73;0.73;;;;;;;17.15;56.67;100997.78;5048617;28;20959;-56
2021/03/31 09:51:11;;;;;;;0.40;0.20;;;;;;;16.96;56.71;100989.66;5038824;28;20471;-56
2021/03/31 09:53:37;;;;;;;0.40;0.30;;;;;;;17.02;56.60;100986.72;5041857;28;20534;-56
2021/03/31 09:56:04;;;;;;;0.40;0.20;;;;;;;17.22;55.71;100988.50;5042043;28;20510;-56
2021/03/31 09:58:31;;;;;;;0.40;0.30;;;;;;;17.26;56.30;100989.22;5048279;28;20953;-56
2021/03/31 10:00:58;;;;;;;3.23;1.57;;;;;;;17.40;56.09;100984.09;5047949;28;20481;-56
2021/03/31 10:03:26;;;;;;;1.03;1.03;;;;;;;17.73;56.20;100974.50;5041552;28;20571;-55
2021/03/31 10:05:52;;;;;;;3.10;1.53;;;;;;;17.75;56.51;100980.69;5042181;28;20448;-56
2021/03/31 10:08:21;;;;;;;1.03;1.03;;;;;;;17.89;55.57;100979.16;5048418;28;20451;-56
2021/03/31 10:10:54;;;;;;;4.20;2.33;;;;;;;18.21;54.28;100972.22;5048370;28;20470;-56
2021/03/31 10:13:23;;;;;;;0.40;0.20;;;;;;;18.19;54.17;100974.09;5043120;28;20443;-56
2021/03/31 10:15:57;;;;;;;1.60;1.50;;;;;;;18.12;53.80;100967.31;5041159;28;20471;-56
2021/03/31 10:18:25;;;;;;;0.40;0.20;;;;;;;18.11;52.86;100965.56;5045777;28;20455;-56
2021/03/31 10:20:51;;;;;;;0.87;0.87;;;;;;;18.17;51.34;100967.94;5048051;28;20530;-56
2021/03/31 10:23:45;;;;;;;0.47;0.30;;;;;;;18.34;50.87;100959.88;5044563;28;20469;-56
2021/03/31 10:26:33;;;;;;;0.90;0.77;;;;;;;18.31;51.05;100957.34;5034148;28;20562;-56
2021/03/31 10:29:24;;;;;;;0.40;0.30;;;;;;;18.32;50.72;100957.28;5041164;28;20590;-56
2021/03/31 10:32:14;;;;;;;0.40;0.30;;;;;;;18.56;51.42;100946.22;5041091;28;20539;-55
2021/03/31 10:34:42;;;;;;;0.50;0.40;;;;;;;18.67;51.30;100951.97;5044642;28;20870;-56
2021/03/31 10:53:33;;;;;;;1.57;1.47;;;;;;;19.59;48.45;100933.59;5040903;28;20500;-54
2021/03/31 10:56:00;;;;;;;0.87;0.87;;;;;;;19.63;47.74;100930.66;5040921;28;20447;-54
2021/03/31 10:58:26;;;;;;;0.40;0.20;;;;;;;19.81;45.74;100924.22;5047454;28;21002;-54
2021/03/31 11:00:54;;;;;;;0.40;0.30;;;;;;;19.63;45.84;100921.69;5046846;28;20471;-55
2021/03/31 11:03:24;;;;;;;11.17;1.90;;;;;;;19.92;45.88;100918.22;5041254;28;20463;-56
2021/03/31 11:05:52;;;;;;;5.17;0.80;;;;;;;19.90;46.73;100908.47;5040871;28;20483;-56
2021/03/31 11:08:19;;;;;;;0.50;0.33;;;;;;;20.27;45.05;100915.28;5045642;28;20455;-56
2021/03/31 11:10:47;;;;;;;2.23;2.13;;;;;;;20.20;44.82;100911.22;5047127;28;20562;-56
2021/03/31 11:13:13;;;;;;;1.80;1.30;;;;;;;20.45;44.77;100910.66;5042162;28;20450;-56
2021/03/31 11:15:39;;;;;;;1.73;1.63;;;;;;;20.51;44.83;100910.28;5040132;28;20917;-54
2021/03/31 11:26:18;;;;;;;0.60;0.60;;;;;;;20.13;45.05;100902.59;5032215;28;20943;-54
2021/03/31 11:28:44;;;;;;;0.60;0.60;;;;;;;20.23;45.94;100889.44;5040600;28;21007;-54
2021/03/31 11:31:11;;;;;;;0.60;0.57;;;;;;;20.41;46.08;100880.22;5043220;28;20458;-54
2021/03/31 11:33:38;;;;;;;0.93;0.93;;;;;;;20.76;45.88;100871.84;5047201;28;20458;-54
2021/03/31 11:36:10;;;;;;;0.40;0.20;;;;;;;20.76;45.36;100867.31;5043626;28;20446;-54
2021/03/31 11:38:40;;;;;;;1.07;1.07;;;;;;;20.75;45.01;100865.59;5040216;28;20447;-54
2021/03/31 11:41:07;;;;;;;1.83;1.73;;;;;;;20.71;44.77;100855.94;5053881;28;20502;-54
2021/03/31 11:43:34;;;;;;;2.37;2.27;;;;;;;20.94;45.16;100849.94;5039950;28;20455;-54
2021/03/31 11:46:00;;;;;;;1.63;0.93;;;;;;;21.23;45.65;100852.63;5042249;28;20953;-54
2021/03/31 11:48:26;;;;;;;0.80;0.80;;;;;;;21.29;45.37;100847.75;5046479;28;20459;-54
2021/03/31 11:50:53;;;;;;;2.27;1.70;;;;;;;21.07;44.96;100841.94;5044190;28;20510;-54
2021/03/31 11:53:19;;;;;;;1.03;1.03;;;;;;;21.10;44.93;100838.16;5040326;28;20454;-54
2021/03/31 11:55:46;;;;;;;7.60;1.80;;;;;;;21.30;44.91;100837.81;5042593;28;21010;-54
2021/03/31 11:58:12;;;;;;;5.77;4.30;;;;;;;21.25;45.26;100821.88;5046909;28;20487;-55
2021/03/31 12:00:38;;;;;;;0.50;0.30;;;;;;;21.37;44.33;100822.91;5044528;28;20474;-54
2021/03/31 12:03:05;;;;;;;18.23;1.67;;;;;;;21.41;45.00;100819.06;5040108;28;20462;-54
2021/03/31 12:05:31;;;;;;;0.50;0.47;;;;;;;21.56;45.30;100822.59;5042538;28;20459;-54
2021/03/31 12:07:58;;;;;;;1.77;1.67;;;;;;;21.69;45.81;100811.81;5046472;28;20969;-54
2021/03/31 12:10:25;;;;;;;0.60;0.60;;;;;;;21.63;43.90;100806.81;5044615;28;20470;-54